GOOYGQPP

Guest
Details From GOOY - Dakar Leopold Sedar Senghor Intl
To GQPP - NOUADHIBOU
Flight Number -
Tags generated
Created
Modified
Stats Distance 373 nm / 692 km
Max Altitude 31,400 ft / 9,571 m
Waypoints 6
Social Downloads 0
Likes 0
Share VATSIM

Download

Looking for another format? Having issues loading an existing format? Contact us
Advertisement - Login to hide

Notes

Basic altitude profile: - Ascent Rate: 2500ft/min - Ascent Speed: 250kts - Cruise Altitude: 35000ft - Cruise Speed: 420kts - Descent Rate: 1500ft/min - Descent Speed: 250kts Options: - Use NATs: yes - Use PACOTS: yes - Use low airways: yes - Use high airways: yes

Route

GOOY YF B600F LIMAX UB600 PE GQPP

ID Type Via Altitude Latitude Longitude Leg Dist Tot Dist Heading (true) Name
O GOOY APT - 0 ft / 0 m 14.73971˚ -17.49023˚ - 0 nm - Dakar Leopold Sedar Senghor Intl
YF VOR - 300 ft / 91 m 14.74483˚ -17.47478˚ 0 nm 0 nm 71° / 71° DAKAR VOR-DME
LIMAX FIX B600F (AWY-LO) 23,500 ft / 7,163 m 16.74861˚ -17.33528˚ 120 nm 121 nm 4° / 4° -
NULET FIX UB600 (AWY-HI) 31,400 ft / 9,571 m 18.41806˚ -17.21667˚ 100 nm 222 nm 4° / 4° -
PE VOR UB600 (AWY-HI) 23,500 ft / 7,163 m 20.91444˚ -17.03497˚ 150 nm 372 nm 4° / 4° NOUADHIBOU VOR-DME
O GQPP APT - 0 ft / 0 m 20.93293˚ -17.02991˚ 1 nm 373 nm 14° / 14° NOUADHIBOU

Altitude Profile

Advertisement - Login to hide

Weather


0- 5 10 15 20 25 30 35+ Temperature / ° C

Clouds and Precipitation
Forecast for 2017-12-15 12:00 UTC. Updated 2 hours ago

Ground ~20,000 ft ~40,000 ft Winds

GOOY

Details ICAO GOOY (DKR)
Name Dakar Leopold Sedar Senghor Intl
Region Senegal
Timezone Africa/Dakar (UTC+0.0)
Stats Elevation 85 ft / 26 m (AMSL)
Location 14.739711° -17.490226°
Runways 2
Magnetic Variation 7.347° W

METAR

GOOY 150900Z 04008KT CAVOK 21/07 Q1016

Decode

TAF

TAF GOOY 150530Z 1506/1612 04012KT CAVOK= TAF GBYD 150530Z 1506/1612 04008KT CAVOK

Decode

Departure Runways

ID Width Length Bearing (true) Bearing (mag) Surface Threshold Offset Overrun Length
03 98 ft / 30 m 4,921 ft / 1,500 m 22.31° 29.66° Asphalt 0 ft / 0 m 98 ft / 30 m
18 148 ft / 45 m 11,511 ft / 3,509 m 172.57° 179.92° Asphalt 525 ft / 160 m 197 ft / 60 m
21 98 ft / 30 m 4,921 ft / 1,500 m 202.31° 209.66° Asphalt 0 ft / 0 m 1,590 ft / 485 m
36 148 ft / 45 m 11,511 ft / 3,509 m 352.57° 359.92° Asphalt 0 ft / 0 m 197 ft / 60 m

GQPP

Details ICAO GQPP (NDB)
Name NOUADHIBOU
Region Mauritania
Timezone Africa/Nouakchott (UTC+0.0)
Stats Elevation 16 ft / 5 m (AMSL)
Location 20.932931° -17.029914°
Runways 1
Magnetic Variation 6.046° W

METAR

GQPP 150900Z 04014KT 6000 NSC 18/11 Q1021 NOSIG

Decode

TAF

TAF GQPP 150500Z 1506/1606 05014KT 6000 NSC TEMPO 1509/1515 4000 BLSA

Decode

Destination Runways

ID Width Length Bearing (true) Bearing (mag) Surface Threshold Offset Overrun Length
02 148 ft / 45 m 7,995 ft / 2,437 m 14.33° 20.38° Asphalt 0 ft / 0 m 0 ft / 0 m
20 148 ft / 45 m 7,995 ft / 2,437 m 194.33° 200.38° Asphalt 0 ft / 0 m 0 ft / 0 m